createdAt,value
2022-11-25T00:01:26.372Z,8.60
2022-11-25T00:03:56.165Z,8.60
2022-11-25T00:06:26.060Z,8.60
2022-11-25T00:08:56.534Z,8.60
2022-11-25T00:11:24.658Z,8.60
2022-11-25T00:13:53.038Z,8.70
2022-11-25T00:16:24.329Z,8.70
2022-11-25T00:18:54.781Z,8.60
2022-11-25T00:21:24.813Z,8.60
2022-11-25T00:23:54.613Z,8.60
2022-11-25T00:26:23.504Z,8.60
2022-11-25T00:28:52.355Z,8.60
2022-11-25T00:31:24.411Z,8.60
2022-11-25T00:33:53.061Z,8.50
2022-11-25T00:36:23.107Z,8.50
2022-11-25T00:38:54.855Z,8.50
2022-11-25T00:41:41.037Z,8.50
2022-11-25T00:44:28.334Z,8.50
2022-11-25T00:46:57.858Z,8.50
2022-11-25T00:49:28.738Z,8.50
2022-11-25T00:51:56.901Z,8.50
2022-11-25T00:54:24.940Z,8.40
2022-11-25T00:56:53.304Z,8.50
2022-11-25T00:59:21.392Z,8.40
2022-11-25T01:01:49.746Z,8.40
2022-11-25T01:04:20.595Z,8.50
2022-11-25T01:06:48.700Z,8.50
2022-11-25T01:09:16.858Z,8.50
2022-11-25T01:11:44.969Z,8.50
2022-11-25T01:14:13.463Z,8.60
2022-11-25T01:16:41.643Z,8.60
2022-11-25T01:19:09.840Z,8.60
2022-11-25T01:21:41.706Z,8.60
2022-11-25T01:24:14.612Z,8.60
2022-11-25T01:26:43.537Z,8.70
2022-11-25T01:29:15.353Z,8.70
2022-11-25T01:31:44.152Z,8.80
2022-11-25T01:34:16.105Z,8.80
2022-11-25T01:36:45.564Z,8.80
2022-11-25T01:39:18.357Z,8.80
2022-11-25T01:41:47.302Z,8.80
2022-11-25T01:44:17.143Z,8.80
2022-11-25T01:46:53.123Z,8.80
2022-11-25T01:49:26.175Z,8.80
2022-11-25T01:51:59.976Z,8.80
2022-11-25T01:54:32.230Z,8.80
2022-11-25T01:57:04.851Z,8.80
2022-11-25T01:59:36.116Z,8.80
2022-11-25T02:02:07.881Z,8.80
2022-11-25T02:04:37.698Z,8.80
2022-11-25T02:07:12.353Z,8.80
2022-11-25T02:09:43.229Z,8.80
2022-11-25T02:12:11.928Z,8.80
2022-11-25T02:14:40.594Z,8.80
2022-11-25T02:17:08.578Z,8.80
2022-11-25T02:19:56.988Z,8.80
2022-11-25T02:22:35.629Z,8.80
2022-11-25T02:25:18.883Z,8.80
2022-11-25T02:27:51.841Z,8.80
2022-11-25T02:30:20.120Z,8.90
2022-11-25T02:32:50.029Z,8.80
2022-11-25T02:35:31.611Z,8.80
2022-11-25T02:38:04.971Z,8.90
2022-11-25T02:40:38.606Z,8.90
2022-11-25T02:43:06.706Z,8.90
2022-11-25T02:45:51.191Z,8.90
2022-11-25T02:48:30.215Z,9.00
2022-11-25T02:51:11.096Z,9.00
2022-11-25T02:53:39.316Z,8.90
2022-11-25T02:56:09.717Z,8.90
2022-11-25T02:58:39.417Z,8.90
2022-11-25T03:01:09.174Z,8.90
2022-11-25T03:03:37.516Z,9.00
2022-11-25T03:06:08.016Z,8.90
2022-11-25T03:08:36.382Z,9.00
2022-11-25T03:11:09.315Z,9.00
2022-11-25T03:13:37.765Z,9.00
2022-11-25T03:16:06.360Z,9.10
2022-11-25T03:18:34.823Z,9.00
2022-11-25T03:21:02.951Z,9.00
2022-11-25T03:23:31.225Z,9.10
2022-11-25T03:25:59.244Z,9.10
2022-11-25T03:28:28.564Z,9.10
2022-11-25T03:30:56.644Z,9.10
2022-11-25T03:33:26.415Z,9.10
2022-11-25T03:35:54.434Z,9.10
2022-11-25T03:38:22.497Z,9.10
2022-11-25T03:40:50.442Z,9.20
2022-11-25T03:43:19.188Z,9.20
2022-11-25T03:45:51.239Z,9.20
2022-11-25T03:48:19.378Z,9.20
2022-11-25T03:50:49.385Z,9.20
2022-11-25T03:53:17.392Z,9.20
2022-11-25T03:55:48.230Z,9.30
2022-11-25T03:58:18.075Z,9.20
2022-11-25T04:00:46.037Z,9.20
2022-11-25T04:03:15.394Z,9.20
2022-11-25T04:05:43.678Z,9.30
2022-11-25T04:08:11.797Z,9.30
2022-11-25T04:10:40.740Z,9.40
2022-11-25T04:13:09.912Z,9.40
2022-11-25T04:15:45.929Z,9.40
2022-11-25T04:18:15.889Z,9.50
2022-11-25T04:20:44.604Z,9.50
2022-11-25T04:23:14.209Z,9.60
2022-11-25T04:26:02.488Z,9.60
2022-11-25T04:28:38.088Z,9.70
2022-11-25T04:31:08.389Z,9.70
2022-11-25T04:33:40.707Z,9.70
2022-11-25T04:36:10.425Z,9.70
2022-11-25T04:38:38.680Z,9.70
2022-11-25T04:41:07.939Z,9.70
2022-11-25T04:43:40.883Z,9.70
2022-11-25T04:46:16.248Z,9.70
2022-11-25T04:48:49.833Z,9.70
2022-11-25T04:51:18.202Z,9.70
2022-11-25T04:53:49.154Z,9.70
2022-11-25T04:56:19.275Z,9.60
2022-11-25T04:59:06.188Z,9.60
2022-11-25T05:01:37.863Z,9.60
2022-11-25T05:04:47.319Z,9.60
2022-11-25T05:07:17.626Z,9.50
2022-11-25T05:09:48.666Z,9.50
2022-11-25T05:12:22.792Z,9.50
2022-11-25T05:14:50.964Z,9.50
2022-11-25T05:17:21.073Z,9.40
2022-11-25T05:19:52.119Z,9.30
2022-11-25T05:22:21.979Z,9.40
2022-11-25T05:24:50.084Z,9.30
2022-11-25T05:27:19.968Z,9.30
2022-11-25T05:29:52.927Z,9.30
2022-11-25T05:32:24.826Z,9.30
2022-11-25T05:34:54.446Z,9.30
2022-11-25T05:37:24.504Z,9.30
2022-11-25T05:40:00.056Z,9.30
2022-11-25T05:43:03.848Z,9.20
2022-11-25T05:45:35.210Z,9.20
2022-11-25T05:48:05.606Z,9.20
2022-11-25T05:50:36.365Z,9.20
2022-11-25T05:53:06.512Z,9.10
2022-11-25T05:55:36.637Z,9.10
2022-11-25T05:58:09.102Z,9.10
2022-11-25T06:00:37.277Z,9.20
2022-11-25T06:03:10.418Z,9.10
2022-11-25T06:05:41.172Z,9.10
2022-11-25T06:08:09.383Z,9.10
2022-11-25T06:10:39.750Z,9.10
2022-11-25T06:13:07.854Z,9.10
2022-11-25T06:15:41.813Z,9.10
2022-11-25T06:18:10.872Z,9.10
2022-11-25T06:20:40.841Z,9.20
2022-11-25T06:23:10.120Z,9.20
2022-11-25T06:25:39.575Z,9.20
2022-11-25T06:28:15.248Z,9.20
2022-11-25T06:30:48.391Z,9.20
2022-11-25T06:33:25.839Z,9.10
2022-11-25T06:35:56.869Z,9.20
2022-11-25T06:38:24.955Z,9.20
2022-11-25T06:40:55.272Z,9.10
2022-11-25T06:43:27.175Z,9.20
2022-11-25T06:45:55.199Z,9.20
2022-11-25T06:48:23.237Z,9.20
2022-11-25T06:50:59.042Z,9.10
2022-11-25T06:53:27.333Z,9.20
2022-11-25T06:56:06.294Z,9.10
2022-11-25T06:58:36.379Z,9.20
2022-11-25T07:01:06.595Z,9.20
2022-11-25T07:03:34.798Z,9.30
2022-11-25T07:06:04.556Z,9.20
2022-11-25T07:08:34.389Z,9.20
2022-11-25T07:11:07.817Z,9.30
2022-11-25T07:13:36.008Z,9.30
2022-11-25T07:16:05.013Z,9.20
2022-11-25T07:18:34.054Z,9.20
2022-11-25T07:21:08.821Z,9.20
2022-11-25T07:23:37.850Z,9.20
2022-11-25T07:26:08.025Z,9.20
2022-11-25T07:28:37.128Z,9.10
2022-11-25T07:31:23.226Z,9.10
2022-11-25T07:33:53.704Z,9.10
2022-11-25T07:36:23.806Z,9.10
2022-11-25T07:38:52.197Z,9.00
2022-11-25T07:41:24.126Z,9.00
2022-11-25T07:43:54.240Z,9.00
2022-11-25T07:46:27.700Z,9.00
2022-11-25T07:48:57.435Z,9.00
2022-11-25T07:51:29.495Z,9.00
2022-11-25T07:53:59.736Z,9.00
2022-11-25T07:56:28.502Z,9.00
2022-11-25T07:58:57.414Z,9.00
2022-11-25T08:01:25.888Z,9.00
2022-11-25T08:03:54.553Z,9.00
2022-11-25T08:06:24.443Z,9.10
2022-11-25T08:08:55.655Z,9.10
2022-11-25T08:11:26.272Z,9.10
2022-11-25T08:13:55.049Z,9.20
2022-11-25T08:16:27.236Z,9.20
2022-11-25T08:18:56.105Z,9.20
2022-11-25T08:21:24.745Z,9.20
2022-11-25T08:23:54.705Z,9.30
2022-11-25T08:26:25.732Z,9.30
2022-11-25T08:28:54.094Z,9.30
2022-11-25T08:31:24.433Z,9.40
2022-11-25T08:33:53.837Z,9.40
2022-11-25T08:36:22.398Z,9.40
2022-11-25T08:38:52.590Z,9.40
2022-11-25T08:41:25.044Z,9.40
2022-11-25T08:43:53.449Z,9.50
2022-11-25T08:46:23.779Z,9.60
2022-11-25T08:48:51.891Z,9.60
2022-11-25T08:51:47.703Z,9.70
2022-11-25T08:54:15.779Z,9.70
2022-11-25T08:56:45.351Z,9.70
2022-11-25T08:59:13.629Z,9.70
2022-11-25T09:01:41.764Z,9.70
2022-11-25T09:04:09.837Z,9.70
2022-11-25T09:06:39.678Z,9.80
2022-11-25T09:09:08.255Z,9.80
2022-11-25T09:11:36.561Z,9.80
2022-11-25T09:14:06.242Z,9.80
2022-11-25T09:16:34.565Z,9.90
2022-11-25T09:19:02.671Z,10.00
2022-11-25T09:21:31.044Z,10.00
2022-11-25T09:23:59.154Z,10.00
2022-11-25T09:26:29.362Z,10.10
2022-11-25T09:28:58.094Z,10.10
2022-11-25T09:31:27.538Z,10.10
2022-11-25T09:33:56.832Z,10.20
2022-11-25T09:36:25.181Z,10.20
2022-11-25T09:38:53.809Z,10.30
2022-11-25T09:42:13.117Z,10.40
2022-11-25T09:45:08.278Z,10.40
2022-11-25T09:47:51.665Z,10.40
2022-11-25T09:50:31.732Z,10.40
2022-11-25T09:53:10.627Z,10.50
2022-11-25T09:55:43.454Z,10.50
2022-11-25T09:58:25.362Z,10.60
2022-11-25T10:00:54.535Z,10.70
2022-11-25T10:03:33.678Z,10.70
2022-11-25T10:06:08.184Z,10.70
2022-11-25T10:08:39.174Z,10.80
2022-11-25T10:11:18.517Z,10.80
2022-11-25T10:13:53.118Z,10.90
2022-11-25T10:16:35.604Z,11.00
2022-11-25T10:19:13.695Z,11.00
2022-11-25T10:21:41.878Z,11.10
2022-11-25T10:24:15.617Z,11.20
2022-11-25T10:26:46.235Z,11.20
2022-11-25T10:29:25.020Z,11.20
2022-11-25T10:32:00.488Z,11.30
2022-11-25T10:34:37.981Z,11.40
2022-11-25T10:37:13.194Z,11.40
2022-11-25T10:39:41.546Z,11.40
2022-11-25T10:42:17.222Z,11.50
2022-11-25T10:44:45.435Z,11.60
2022-11-25T10:47:35.087Z,11.70
2022-11-25T10:50:17.174Z,11.80
2022-11-25T10:52:51.751Z,12.00
2022-11-25T10:55:24.126Z,12.10
2022-11-25T10:57:52.305Z,12.20
2022-11-25T11:00:30.550Z,12.10
2022-11-25T11:02:59.951Z,12.10
2022-11-25T11:05:31.285Z,12.20
2022-11-25T11:08:20.131Z,12.30
2022-11-25T11:10:54.321Z,12.30
2022-11-25T11:13:26.671Z,12.20
2022-11-25T11:15:55.632Z,12.20
2022-11-25T11:18:28.745Z,12.10
2022-11-25T11:21:00.360Z,12.10
2022-11-25T11:23:30.704Z,12.10
2022-11-25T11:26:01.568Z,12.10
2022-11-25T11:28:38.616Z,12.10
2022-11-25T11:31:16.139Z,12.10
2022-11-25T11:33:55.498Z,12.10
2022-11-25T11:36:36.592Z,12.10
2022-11-25T11:39:23.447Z,12.10
2022-11-25T11:41:56.287Z,12.10
2022-11-25T11:44:34.435Z,12.10
2022-11-25T11:47:14.192Z,12.10
2022-11-25T11:50:04.121Z,12.10
2022-11-25T11:52:46.834Z,12.20
2022-11-25T11:55:27.627Z,12.30
2022-11-25T11:58:05.476Z,12.30
2022-11-25T12:00:45.014Z,12.30
2022-11-25T12:03:17.927Z,12.30
2022-11-25T12:05:46.666Z,12.40
2022-11-25T12:08:23.449Z,12.40
2022-11-25T12:11:00.136Z,12.40
2022-11-25T12:13:36.615Z,12.50
2022-11-25T12:16:18.622Z,12.50
2022-11-25T12:18:53.595Z,12.50
2022-11-25T12:21:45.322Z,12.50
2022-11-25T12:24:23.660Z,12.50
2022-11-25T12:27:02.419Z,12.60
2022-11-25T12:29:38.280Z,12.60
2022-11-25T12:32:22.597Z,12.60
2022-11-25T12:34:57.846Z,12.70
2022-11-25T12:37:33.077Z,12.70
2022-11-25T12:40:09.317Z,12.70
2022-11-25T12:42:40.813Z,12.70
2022-11-25T12:45:20.354Z,12.70
2022-11-25T12:47:48.579Z,12.70
2022-11-25T12:50:22.846Z,12.80
2022-11-25T12:53:00.244Z,12.80
2022-11-25T12:55:29.791Z,13.00
2022-11-25T12:58:42.195Z,13.20
2022-11-25T13:01:44.165Z,13.30
2022-11-25T13:04:31.529Z,13.30
2022-11-25T13:07:24.983Z,13.30
2022-11-25T13:10:16.309Z,13.20
2022-11-25T13:12:55.614Z,13.10
2022-11-25T13:15:28.661Z,13.00
2022-11-25T13:18:01.036Z,12.90
2022-11-25T13:20:57.494Z,12.90
2022-11-25T13:23:49.677Z,12.80
2022-11-25T13:26:51.909Z,12.70
2022-11-25T13:29:59.991Z,12.60
2022-11-25T13:32:42.109Z,12.60
2022-11-25T13:35:51.148Z,12.60
2022-11-25T13:39:00.435Z,12.60
2022-11-25T13:42:00.186Z,12.70
2022-11-25T13:44:32.511Z,12.80
2022-11-25T13:47:23.726Z,12.70
2022-11-25T13:49:59.142Z,12.70
2022-11-25T13:52:38.885Z,12.70
2022-11-25T13:55:23.085Z,12.70
2022-11-25T13:58:16.260Z,12.60
2022-11-25T14:00:51.226Z,12.50
2022-11-25T14:03:58.102Z,12.50
2022-11-25T14:06:52.575Z,12.50
2022-11-25T14:09:38.386Z,12.50
2022-11-25T14:12:24.965Z,12.50
2022-11-25T14:15:12.072Z,12.50
2022-11-25T14:18:03.017Z,12.50
2022-11-25T14:20:42.556Z,12.40
2022-11-25T14:23:47.831Z,12.40
2022-11-25T14:26:48.306Z,12.40
2022-11-25T14:29:18.470Z,12.40
2022-11-25T14:31:51.602Z,12.40
2022-11-25T14:34:24.349Z,12.50
2022-11-25T14:36:57.747Z,12.40
2022-11-25T14:39:32.357Z,12.40
2022-11-25T14:42:05.263Z,12.40
2022-11-25T14:44:39.440Z,12.40
2022-11-25T14:47:07.493Z,12.30
2022-11-25T14:50:00.215Z,12.30
2022-11-25T14:52:37.863Z,12.30
2022-11-25T14:55:09.588Z,12.40
2022-11-25T14:57:41.568Z,12.40
2022-11-25T15:00:15.321Z,12.40
2022-11-25T15:02:54.208Z,12.40
2022-11-25T15:05:26.085Z,12.40
2022-11-25T15:08:02.154Z,12.30
2022-11-25T15:10:42.137Z,12.30
2022-11-25T15:13:24.802Z,12.30
2022-11-25T15:15:55.788Z,12.20
2022-11-25T15:18:25.814Z,12.30
2022-11-25T15:20:59.194Z,12.20
2022-11-25T15:23:31.898Z,12.20
2022-11-25T15:26:01.985Z,12.20
2022-11-25T15:28:35.834Z,12.20
2022-11-25T15:31:09.746Z,12.20
2022-11-25T15:33:39.113Z,12.10
2022-11-25T15:36:07.764Z,12.10
2022-11-25T15:38:42.083Z,12.10
2022-11-25T15:41:32.501Z,12.00
2022-11-25T15:44:03.416Z,12.00
2022-11-25T15:46:34.325Z,12.00
2022-11-25T15:49:05.520Z,12.00
2022-11-25T15:51:39.191Z,12.00
2022-11-25T15:54:18.299Z,12.00
2022-11-25T15:56:50.677Z,12.00
2022-11-25T15:59:39.390Z,12.00
2022-11-25T16:02:43.283Z,12.00
2022-11-25T16:05:28.592Z,12.00
2022-11-25T16:08:29.476Z,11.90
2022-11-25T16:11:00.297Z,11.90
2022-11-25T16:13:35.108Z,11.90
2022-11-25T16:16:28.688Z,11.90
2022-11-25T16:19:12.405Z,11.80
2022-11-25T16:21:45.128Z,11.80
2022-11-25T16:24:32.488Z,11.80
2022-11-25T16:27:02.052Z,11.70
2022-11-25T16:29:36.086Z,11.80
2022-11-25T16:32:15.012Z,11.80
2022-11-25T16:34:43.156Z,11.80
2022-11-25T16:37:11.184Z,11.90
2022-11-25T16:39:39.764Z,11.90
2022-11-25T16:42:09.094Z,11.90
2022-11-25T16:44:38.781Z,11.90
2022-11-25T16:47:06.853Z,11.80
2022-11-25T16:49:35.148Z,11.90
2022-11-25T16:52:03.506Z,11.90
2022-11-25T16:54:31.678Z,11.80
2022-11-25T16:56:59.872Z,11.80
2022-11-25T16:59:31.654Z,11.80
2022-11-25T17:02:04.465Z,11.80
2022-11-25T17:04:33.733Z,11.80
2022-11-25T17:07:31.115Z,11.80
2022-11-25T17:09:50.342Z,11.80
2022-11-25T17:12:21.903Z,11.90
2022-11-25T17:14:50.343Z,11.80
2022-11-25T17:17:24.737Z,11.80
2022-11-25T17:19:53.395Z,11.80
2022-11-25T17:22:23.751Z,11.80
2022-11-25T17:24:51.977Z,11.80
2022-11-25T17:27:25.489Z,11.80
2022-11-25T17:29:53.892Z,11.70
2022-11-25T17:32:23.937Z,11.70
2022-11-25T17:34:52.041Z,11.70
2022-11-25T17:37:22.741Z,11.70
2022-11-25T17:39:52.615Z,11.70
2022-11-25T17:42:26.341Z,11.70
2022-11-25T17:44:54.602Z,11.70
2022-11-25T17:47:24.547Z,11.70
2022-11-25T17:49:53.125Z,11.70
2022-11-25T17:52:21.167Z,11.70
2022-11-25T17:54:49.232Z,11.70
2022-11-25T17:57:21.317Z,11.70
2022-11-25T17:59:49.596Z,11.70
2022-11-25T18:02:19.496Z,11.70
2022-11-25T18:04:49.680Z,11.60
2022-11-25T18:07:17.863Z,11.60
2022-11-25T18:09:46.712Z,11.60
2022-11-25T18:12:17.561Z,11.70
2022-11-25T18:14:46.191Z,11.70
2022-11-25T18:17:18.719Z,11.70
2022-11-25T18:19:54.483Z,11.60
2022-11-25T18:22:24.586Z,11.60
2022-11-25T18:24:53.339Z,11.60
2022-11-25T18:27:24.351Z,11.60
2022-11-25T18:29:53.105Z,11.60
2022-11-25T18:32:22.575Z,11.60
2022-11-25T18:34:52.905Z,11.60
2022-11-25T18:37:21.537Z,11.60
2022-11-25T18:39:49.593Z,11.60
2022-11-25T18:42:24.738Z,11.60
2022-11-25T18:44:53.703Z,11.60
2022-11-25T18:47:21.736Z,11.60
2022-11-25T18:49:55.158Z,11.60
2022-11-25T18:52:25.174Z,11.60
2022-11-25T18:54:53.207Z,11.50
2022-11-25T18:57:23.918Z,11.50
2022-11-25T19:00:16.895Z,11.50
2022-11-25T19:02:40.067Z,11.50
2022-11-25T19:05:16.349Z,11.50
2022-11-25T19:07:46.373Z,11.50
2022-11-25T19:10:15.123Z,11.40
2022-11-25T19:12:45.167Z,11.40
2022-11-25T19:15:16.704Z,11.40
2022-11-25T19:17:47.441Z,11.40
2022-11-25T19:20:16.463Z,11.40
2022-11-25T19:22:45.802Z,11.40
2022-11-25T19:25:13.831Z,11.40
2022-11-25T19:27:45.229Z,11.40
2022-11-25T19:30:17.443Z,11.40
2022-11-25T19:32:47.066Z,11.30
2022-11-25T19:35:17.535Z,11.30
2022-11-25T19:37:47.008Z,11.30
2022-11-25T19:40:17.255Z,11.20
2022-11-25T19:42:48.305Z,11.20
2022-11-25T19:45:18.522Z,11.20
2022-11-25T19:47:49.107Z,11.10
2022-11-25T19:50:21.806Z,11.10
2022-11-25T19:52:51.975Z,11.10
2022-11-25T19:55:22.197Z,11.00
2022-11-25T19:57:51.166Z,11.00
2022-11-25T20:00:20.980Z,10.90
2022-11-25T20:02:51.825Z,10.90
2022-11-25T20:05:22.285Z,10.90
2022-11-25T20:07:51.681Z,10.90
2022-11-25T20:10:22.034Z,10.90
2022-11-25T20:12:50.513Z,10.80
2022-11-25T20:15:19.170Z,10.80
2022-11-25T20:17:50.014Z,10.80
2022-11-25T20:20:20.789Z,10.80
2022-11-25T20:22:56.521Z,10.80
2022-11-25T20:25:24.875Z,10.80
2022-11-25T20:27:52.904Z,10.80
2022-11-25T20:30:22.365Z,10.80
2022-11-25T20:32:50.406Z,10.80
2022-11-25T20:35:19.016Z,10.70
2022-11-25T20:37:57.462Z,10.70
2022-11-25T20:40:33.279Z,10.70
2022-11-25T20:43:01.618Z,10.70
2022-11-25T20:45:29.779Z,10.60
2022-11-25T20:47:59.037Z,10.60
2022-11-25T20:50:29.871Z,10.50
2022-11-25T20:52:58.201Z,10.60
2022-11-25T20:55:27.537Z,10.50
2022-11-25T20:57:55.513Z,10.50
2022-11-25T21:00:26.335Z,10.50
2022-11-25T21:02:57.025Z,10.40
2022-11-25T21:05:27.367Z,10.40
2022-11-25T21:07:55.612Z,10.40
2022-11-25T21:10:28.344Z,10.40
2022-11-25T21:12:57.367Z,10.40
2022-11-25T21:15:27.435Z,10.30
2022-11-25T21:17:57.534Z,10.30
2022-11-25T21:20:25.564Z,10.30
2022-11-25T21:22:56.599Z,10.30
2022-11-25T21:25:26.944Z,10.30
2022-11-25T21:27:55.370Z,10.30
2022-11-25T21:30:25.822Z,10.30
2022-11-25T21:32:57.307Z,10.30
2022-11-25T21:35:29.806Z,10.30
2022-11-25T21:37:58.111Z,10.30
2022-11-25T21:40:34.176Z,10.30
2022-11-25T21:43:03.397Z,10.40
2022-11-25T21:45:31.435Z,10.30
2022-11-25T21:47:59.450Z,10.30
2022-11-25T21:50:29.861Z,10.40
2022-11-25T21:52:58.040Z,10.40
2022-11-25T21:55:26.595Z,10.40
2022-11-25T21:57:55.978Z,10.40
2022-11-25T22:00:27.449Z,10.40
2022-11-25T22:02:55.950Z,10.40
2022-11-25T22:05:26.548Z,10.40
2022-11-25T22:07:55.047Z,10.30
2022-11-25T22:10:23.862Z,10.40
2022-11-25T22:12:51.972Z,10.30
2022-11-25T22:15:22.791Z,10.30
2022-11-25T22:17:53.231Z,10.30
2022-11-25T22:20:27.559Z,10.30
2022-11-25T22:22:56.158Z,10.20
2022-11-25T22:25:27.784Z,10.20
2022-11-25T22:27:56.022Z,10.20
2022-11-25T22:30:25.521Z,10.10
2022-11-25T22:33:00.426Z,10.10
2022-11-25T22:35:29.172Z,10.10
2022-11-25T22:37:57.198Z,10.10
2022-11-25T22:40:25.709Z,10.10
2022-11-25T22:42:55.556Z,10.10
2022-11-25T22:45:30.658Z,10.10
2022-11-25T22:48:00.499Z,10.00
2022-11-25T22:50:30.647Z,9.90
2022-11-25T22:52:59.968Z,9.90
2022-11-25T22:55:29.819Z,10.00
2022-11-25T22:58:00.218Z,9.90
2022-11-25T23:00:32.507Z,9.80
2022-11-25T23:03:02.261Z,9.70
2022-11-25T23:05:33.426Z,9.70
2022-11-25T23:08:03.139Z,9.70
2022-11-25T23:10:32.510Z,9.70
2022-11-25T23:13:00.492Z,9.70
2022-11-25T23:15:30.764Z,9.70
2022-11-25T23:18:00.469Z,9.60
2022-11-25T23:20:32.176Z,9.60
2022-11-25T23:23:05.929Z,9.50
2022-11-25T23:25:33.915Z,9.50
2022-11-25T23:28:01.911Z,9.60
2022-11-25T23:30:31.707Z,9.70
2022-11-25T23:32:59.959Z,9.70
2022-11-25T23:35:31.379Z,9.70
2022-11-25T23:38:00.120Z,9.80
2022-11-25T23:40:28.763Z,9.80
2022-11-25T23:42:57.593Z,9.80
2022-11-25T23:45:27.954Z,9.80
2022-11-25T23:47:57.828Z,9.80
2022-11-25T23:50:29.899Z,9.80
2022-11-25T23:53:02.104Z,9.70
2022-11-25T23:55:33.189Z,9.70
2022-11-25T23:58:02.654Z,9.70
